Ardabil Airport

Airport
ICAO code: 
OITL
IATA Code: 
ADU
Summary
ICAO Region: 
MID
Territory: 
Location: 
Gilan Deh, Ardabil
Serving: 
Ardabil
Elevation: 
4315 ft
Coordinates: 
Aerial View: 
38° 19' 26.642" N, 48° 25' 12.543" E
Metar
Observation
OITL 261951Z 33004KT 9999 FEW040 14/12 Q1011
Station
Ardabil
Date/Time
2022-06-26 19:51:00
Wind direction
330°
Wind speed
04 kts
Lowest cloud amount
few clouds
Temperature
14°C
Dew point
12°C
Humidity
87%
QNH
1011 hPa
Weather condition
n/a

Airport serving Ardabil in north-western Iran.

Climatology

Cold Semi-arid climate (Köppen climate classification BSk).

Runways

Designator Length Width Surface Rops
15/33 3299 45 PEM No/No
Airport map: 
Aerial View: 

SKYbrary Partners:

Safety knowledge contributed by: